Time;durP1;ratioP1;P1;durP2;ratioP2;P2;SDS_P1;SDS_P2;PMS_P1;PMS_P2;Temp;Humidity;BMP_temperature;BMP_pressure;BME280_temperature;BME280_humidity;BME280_pressure;Samples;Min_cycle;Max_cycle;Signal;HPM_P1;HPM_P2
2023/08/05 00:00:12;;;;;;;7.63;5.38;;;;;;;27.25;54.84;94117.03;5092320;28;20276;-43
2023/08/05 00:02:39;;;;;;;8.90;5.75;;;;;;;27.21;54.64;94114.09;5080738;28;20209;-43
2023/08/05 00:05:07;;;;;;;9.65;5.57;;;;;;;27.19;55.23;94110.16;5071718;28;20194;-44
2023/08/05 00:07:35;;;;;;;7.43;5.90;;;;;;;27.09;55.47;94102.19;5071504;28;20199;-42
2023/08/05 00:10:02;;;;;;;10.55;5.55;;;;;;;27.08;55.25;94106.66;5072120;28;20244;-44
2023/08/05 00:12:29;;;;;;;7.97;5.65;;;;;;;27.06;55.79;94097.44;5072102;28;20191;-42
2023/08/05 00:14:55;;;;;;;10.13;5.57;;;;;;;26.99;55.88;94085.34;5071677;28;20202;-44
2023/08/05 00:17:22;;;;;;;6.93;6.22;;;;;;;26.93;55.58;94086.34;5071555;28;20190;-43
2023/08/05 00:19:50;;;;;;;5.85;5.28;;;;;;;26.91;55.81;94091.09;5071744;28;20179;-45
2023/08/05 00:22:17;;;;;;;5.75;5.32;;;;;;;26.86;56.19;94085.81;5071729;28;20232;-43
2023/08/05 00:24:45;;;;;;;6.38;5.75;;;;;;;26.83;56.14;94081.06;5071361;28;20638;-44
2023/08/05 00:27:12;;;;;;;8.98;5.30;;;;;;;26.78;56.61;94081.03;5071804;28;20190;-44
2023/08/05 00:29:39;;;;;;;6.18;5.25;;;;;;;26.77;56.52;94080.25;5071133;28;20186;-43
2023/08/05 00:32:06;;;;;;;6.55;5.47;;;;;;;26.69;56.89;94074.69;5071496;28;20187;-44
2023/08/05 00:34:34;;;;;;;7.22;5.30;;;;;;;26.67;56.86;94095.91;5071178;28;20190;-43
2023/08/05 00:37:01;;;;;;;12.18;5.78;;;;;;;26.59;57.14;94079.84;5071499;28;20190;-43
2023/08/05 00:39:27;;;;;;;8.15;5.57;;;;;;;26.54;57.40;94077.97;5070912;28;20225;-44
2023/08/05 00:41:55;;;;;;;6.88;6.10;;;;;;;26.61;57.13;94077.78;5071307;28;20261;-45
2023/08/05 00:44:23;;;;;;;7.45;6.20;;;;;;;26.57;57.37;94087.97;5070960;28;20239;-42
2023/08/05 00:46:50;;;;;;;7.60;5.93;;;;;;;26.48;57.75;94089.50;5071238;28;20281;-44
2023/08/05 00:49:17;;;;;;;8.30;5.40;;;;;;;26.41;57.53;94067.91;5071026;28;20660;-43
2023/08/05 00:51:44;;;;;;;6.22;5.63;;;;;;;26.47;57.62;94072.97;5070893;28;20190;-43
2023/08/05 00:54:12;;;;;;;8.10;5.82;;;;;;;26.41;57.92;94062.66;5072393;28;20190;-43
2023/08/05 00:56:39;;;;;;;7.20;5.65;;;;;;;26.38;57.92;94073.63;5070676;28;20616;-45
2023/08/05 00:59:08;;;;;;;8.73;5.75;;;;;;;26.35;57.98;94068.91;5071111;28;20221;-43
2023/08/05 01:01:34;;;;;;;6.85;5.82;;;;;;;26.24;58.10;94066.19;5070479;28;20719;-44
2023/08/05 01:04:01;;;;;;;6.10;5.50;;;;;;;26.19;58.07;94068.00;5070962;28;20202;-43
2023/08/05 01:06:29;;;;;;;10.98;5.95;;;;;;;26.21;57.90;94063.31;5070825;28;20652;-44
2023/08/05 01:08:56;;;;;;;7.82;6.07;;;;;;;26.16;57.99;94063.25;5070800;28;20194;-42
2023/08/05 01:11:24;;;;;;;6.88;5.45;;;;;;;26.19;58.48;94058.28;5070414;28;20252;-44
2023/08/05 01:13:51;;;;;;;6.95;6.25;;;;;;;26.20;58.38;94059.06;5070486;28;20194;-43
2023/08/05 01:16:19;;;;;;;7.20;6.25;;;;;;;26.13;58.39;94063.75;5070195;28;20647;-42
2023/08/05 01:18:46;;;;;;;7.53;5.70;;;;;;;26.06;58.96;94061.34;5069401;28;20210;-43
2023/08/05 01:21:19;;;;;;;8.45;6.10;;;;;;;26.05;58.93;94075.47;5070517;28;20570;-43
2023/08/05 01:23:55;;;;;;;6.32;5.72;;;;;;;26.05;58.80;94065.00;5070671;28;20255;-44
2023/08/05 01:26:24;;;;;;;9.85;6.03;;;;;;;26.02;59.00;94060.25;5070106;28;20188;-43
2023/08/05 01:28:52;;;;;;;5.70;5.25;;;;;;;25.96;58.98;94056.00;5070671;28;20193;-45
2023/08/05 01:31:20;;;;;;;6.40;5.80;;;;;;;25.97;59.42;94039.25;5069611;28;20226;-42
2023/08/05 01:33:48;;;;;;;6.05;5.55;;;;;;;25.88;59.36;94044.16;5070499;28;20202;-43
2023/08/05 01:36:20;;;;;;;9.38;5.82;;;;;;;25.89;59.31;94050.16;5070066;28;20196;-43
2023/08/05 01:38:48;;;;;;;6.22;5.63;;;;;;;25.84;59.14;94050.13;5070041;28;20265;-45
2023/08/05 01:41:15;;;;;;;8.60;5.88;;;;;;;25.82;59.61;94041.72;5070366;28;20281;-44
2023/08/05 01:43:43;;;;;;;10.63;5.90;;;;;;;25.85;59.32;94043.84;5070001;28;20190;-43
2023/08/05 01:46:10;;;;;;;6.40;5.10;;;;;;;25.82;59.63;94049.56;5070065;28;20190;-44
2023/08/05 01:48:37;;;;;;;6.10;5.47;;;;;;;25.80;59.70;94038.56;5069594;28;20197;-42
2023/08/05 01:51:04;;;;;;;5.93;5.43;;;;;;;25.80;59.58;94033.31;5070199;28;20617;-44
2023/08/05 01:53:31;;;;;;;7.28;6.50;;;;;;;25.80;59.44;94038.56;5069530;28;20198;-44
2023/08/05 01:55:57;;;;;;;6.10;5.53;;;;;;;25.74;59.46;94048.19;5069936;28;20182;-44
2023/08/05 01:58:24;;;;;;;9.00;5.93;;;;;;;25.71;59.64;94057.31;5069568;28;20218;-43
2023/08/05 02:00:53;;;;;;;10.73;5.57;;;;;;;25.71;59.42;94057.31;5069689;28;20197;-43
2023/08/05 02:03:19;;;;;;;7.07;5.30;;;;;;;25.70;59.72;94055.75;5069430;28;20665;-43
2023/08/05 02:05:46;;;;;;;8.65;5.60;;;;;;;25.56;59.73;94027.56;5069831;28;20194;-43
2023/08/05 02:08:13;;;;;;;6.22;5.63;;;;;;;25.73;59.72;94050.03;5069725;28;20194;-42
2023/08/05 02:10:41;;;;;;;8.30;5.82;;;;;;;25.66;60.04;94043.38;5069514;28;20205;-44
2023/08/05 02:13:08;;;;;;;6.63;5.85;;;;;;;25.67;60.03;94044.97;5069233;28;20658;-44
2023/08/05 02:15:34;;;;;;;6.30;5.65;;;;;;;25.62;60.29;94034.44;5069370;28;20670;-43
2023/08/05 02:18:03;;;;;;;7.53;5.90;;;;;;;25.59;59.99;94034.94;5069401;28;20660;-42
2023/08/05 02:20:30;;;;;;;7.20;6.50;;;;;;;25.58;60.23;94036.75;5069449;28;20199;-46
2023/08/05 02:22:57;;;;;;;7.43;5.97;;;;;;;25.52;60.21;94040.38;5069443;28;20189;-44
2023/08/05 02:25:23;;;;;;;6.90;6.15;;;;;;;25.52;60.19;94048.22;5069192;28;20193;-43
2023/08/05 02:27:50;;;;;;;9.45;6.10;;;;;;;25.57;60.23;94047.50;5069537;28;20204;-43
2023/08/05 02:30:17;;;;;;;7.20;5.60;;;;;;;25.58;59.70;94044.63;5068816;28;20230;-43
2023/08/05 02:32:44;;;;;;;5.80;5.30;;;;;;;25.60;59.93;94052.22;5069594;28;20194;-42
2023/08/05 02:35:12;;;;;;;6.15;5.65;;;;;;;25.65;59.75;94042.59;5069131;28;20610;-43
2023/08/05 02:37:39;;;;;;;7.82;6.00;;;;;;;25.63;59.74;94046.50;5069498;28;20186;-42
2023/08/05 02:40:07;;;;;;;8.73;5.88;;;;;;;25.55;60.08;94045.09;5069124;28;20327;-42
2023/08/05 02:42:33;;;;;;;7.82;5.47;;;;;;;25.44;60.30;94030.34;5069356;28;20217;-44
2023/08/05 02:45:01;;;;;;;6.20;5.60;;;;;;;25.51;60.55;94044.00;5071191;28;20199;-44
2023/08/05 02:47:28;;;;;;;7.97;6.05;;;;;;;25.48;60.59;94044.53;5069604;28;20194;-43
2023/08/05 02:49:55;;;;;;;7.18;6.45;;;;;;;25.37;61.10;94037.59;5069317;28;20186;-44
2023/08/05 02:52:23;;;;;;;7.90;5.95;;;;;;;25.30;61.18;94042.22;5069761;28;20183;-43
2023/08/05 02:54:50;;;;;;;7.13;6.53;;;;;;;25.31;61.27;94044.59;5069184;28;20651;-44
2023/08/05 02:57:16;;;;;;;9.20;6.20;;;;;;;25.30;61.43;94045.59;5069245;28;20190;-44
2023/08/05 02:59:43;;;;;;;8.00;6.93;;;;;;;25.28;61.61;94045.88;5068953;28;20234;-42
2023/08/05 03:02:10;;;;;;;11.30;6.57;;;;;;;25.28;61.72;94037.22;5068962;28;20194;-43
2023/08/05 03:04:37;;;;;;;9.57;6.70;;;;;;;25.26;61.69;94034.06;5069311;28;20178;-44
2023/08/05 03:07:04;;;;;;;10.75;6.85;;;;;;;25.24;61.82;94028.28;5069047;28;20619;-42
2023/08/05 03:09:32;;;;;;;7.78;7.00;;;;;;;25.22;61.84;94030.38;5069263;28;20206;-44
2023/08/05 03:11:59;;;;;;;8.57;6.20;;;;;;;25.21;61.68;94036.59;5068740;28;20267;-44
2023/08/05 03:14:25;;;;;;;7.35;6.50;;;;;;;25.18;61.76;94042.34;5069110;28;20203;-46
2023/08/05 03:16:52;;;;;;;6.50;5.90;;;;;;;25.17;61.40;94030.28;5069072;28;20197;-44
2023/08/05 03:19:19;;;;;;;7.03;6.32;;;;;;;25.19;61.39;94042.09;5069232;28;20294;-44
2023/08/05 03:21:46;;;;;;;9.20;5.90;;;;;;;25.17;61.55;94043.38;5069073;28;20190;-44
2023/08/05 03:24:12;;;;;;;6.47;5.90;;;;;;;25.16;62.13;94049.63;5069400;28;20198;-42
2023/08/05 03:26:40;;;;;;;7.82;6.10;;;;;;;25.15;61.83;94050.69;5068894;28;20187;-42
2023/08/05 03:29:07;;;;;;;6.90;6.25;;;;;;;25.12;61.99;94041.47;5068835;28;20198;-43
2023/08/05 03:31:34;;;;;;;8.40;6.30;;;;;;;25.12;62.02;94038.88;5068621;28;20714;-44
2023/08/05 03:34:01;;;;;;;9.70;5.95;;;;;;;25.11;61.92;94031.28;5068679;28;20593;-44
2023/08/05 03:36:28;;;;;;;6.68;5.97;;;;;;;25.10;62.14;94040.16;5068986;28;20577;-43
2023/08/05 03:38:55;;;;;;;7.93;6.03;;;;;;;25.07;62.39;94045.84;5068417;28;20727;-43
2023/08/05 03:41:22;;;;;;;6.97;6.15;;;;;;;25.06;62.30;94050.28;5070558;28;20547;-43
2023/08/05 03:43:50;;;;;;;6.97;6.28;;;;;;;25.03;61.93;94046.31;5072052;28;20206;-44
2023/08/05 03:46:17;;;;;;;15.18;6.50;;;;;;;25.11;61.63;94046.97;5072199;28;20201;-43
2023/08/05 03:48:44;;;;;;;6.40;5.80;;;;;;;25.15;61.86;94054.09;5071948;28;20337;-42
2023/08/05 03:51:10;;;;;;;6.85;6.22;;;;;;;25.17;61.84;94049.41;5072210;28;20669;-43
2023/08/05 03:53:37;;;;;;;6.95;6.25;;;;;;;25.22;61.50;94041.63;5072474;28;20549;-43
2023/08/05 03:56:05;;;;;;;7.88;6.55;;;;;;;25.26;62.00;94039.31;5072427;28;20768;-44
2023/08/05 03:58:32;;;;;;;8.45;6.00;;;;;;;25.29;61.56;94036.19;5071777;28;20696;-43
2023/08/05 04:01:01;;;;;;;8.57;6.68;;;;;;;25.30;61.94;94031.72;5071857;28;20708;-43
2023/08/05 04:03:28;;;;;;;8.55;6.20;;;;;;;25.30;61.81;94029.91;5072357;28;20261;-43
2023/08/05 04:05:55;;;;;;;7.78;6.43;;;;;;;25.30;60.98;94029.13;5072100;28;20205;-44
2023/08/05 04:08:22;;;;;;;7.65;6.30;;;;;;;25.36;61.29;94033.38;5072238;28;20183;-43
2023/08/05 04:10:49;;;;;;;6.20;5.70;;;;;;;25.31;61.05;94028.09;5071400;28;20194;-43
2023/08/05 04:13:17;;;;;;;8.48;6.20;;;;;;;25.14;61.16;94008.03;5072029;28;20182;-43
2023/08/05 04:15:45;;;;;;;7.35;6.07;;;;;;;25.26;61.21;94027.00;5071489;28;20217;-42
2023/08/05 04:18:13;;;;;;;10.32;6.50;;;;;;;25.38;61.22;94037.31;5071795;28;20719;-44
2023/08/05 04:20:40;;;;;;;8.32;6.47;;;;;;;25.43;61.05;94045.25;5071443;28;20716;-45
2023/08/05 04:23:09;;;;;;;9.70;6.72;;;;;;;25.45;61.28;94045.00;5071640;28;20195;-44
2023/08/05 04:25:35;;;;;;;8.63;6.50;;;;;;;25.51;60.70;94031.69;5071328;28;20191;-42
2023/08/05 04:28:02;;;;;;;8.23;5.93;;;;;;;25.56;60.59;94033.59;5071436;28;20198;-44
2023/08/05 04:30:29;;;;;;;6.13;5.55;;;;;;;25.58;60.27;94021.03;5070878;28;20577;-41
2023/08/05 04:32:57;;;;;;;7.30;5.88;;;;;;;25.77;59.24;94030.16;5071605;28;20194;-44
2023/08/05 04:35:25;;;;;;;6.93;5.88;;;;;;;25.80;59.23;94036.72;5072275;28;20589;-44
2023/08/05 04:37:51;;;;;;;6.18;5.57;;;;;;;25.73;58.95;94034.31;5071754;28;20179;-44
2023/08/05 04:40:19;;;;;;;10.70;5.60;;;;;;;25.80;59.07;94041.97;5071100;28;20233;-43
2023/08/05 04:42:46;;;;;;;7.18;5.65;;;;;;;25.90;58.78;94046.50;5070958;28;20198;-44
2023/08/05 04:45:12;;;;;;;6.32;4.75;;;;;;;25.91;58.55;94035.00;5071183;28;20194;-43
2023/08/05 04:47:40;;;;;;;5.78;5.20;;;;;;;26.08;57.86;94037.47;5070713;28;20182;-44
2023/08/05 04:50:08;;;;;;;7.00;5.13;;;;;;;26.14;57.99;94058.25;5070975;28;20194;-44
2023/08/05 04:52:36;;;;;;;7.68;5.75;;;;;;;26.11;57.75;94050.09;5070581;28;20198;-43
2023/08/05 04:55:09;;;;;;;8.52;5.60;;;;;;;26.24;57.33;94055.72;5070859;28;20194;-44
2023/08/05 04:57:36;;;;;;;7.63;5.22;;;;;;;26.37;56.72;94049.25;5070606;28;20656;-45
2023/08/05 05:00:03;;;;;;;5.97;5.43;;;;;;;26.63;56.54;94047.63;5070672;28;20279;-44
2023/08/05 05:02:30;;;;;;;6.00;4.97;;;;;;;27.00;55.61;94044.16;5070523;28;20194;-44
2023/08/05 05:04:57;;;;;;;5.22;4.78;;;;;;;27.33;54.32;94048.25;5070893;28;20252;-43
2023/08/05 05:07:23;;;;;;;5.72;5.03;;;;;;;27.79;53.42;94050.22;5070620;28;20228;-44
2023/08/05 05:09:52;;;;;;;6.43;4.65;;;;;;;28.16;51.50;94058.69;5070883;28;20186;-46
2023/08/05 05:12:18;;;;;;;8.82;5.07;;;;;;;28.61;51.31;94058.94;5070929;28;20200;-44
2023/08/05 05:14:46;;;;;;;7.63;5.95;;;;;;;28.77;50.07;94018.41;5070762;28;20183;-44
2023/08/05 05:17:15;;;;;;;5.63;4.55;;;;;;;29.30;49.06;94042.44;5070420;28;20187;-45
2023/08/05 05:19:42;;;;;;;5.15;4.68;;;;;;;29.64;48.37;94047.84;5070408;28;20226;-44
2023/08/05 05:22:09;;;;;;;6.18;5.50;;;;;;;29.99;47.97;94048.69;5070138;28;20187;-41
2023/08/05 05:24:36;;;;;;;5.40;4.78;;;;;;;30.30;46.26;94033.44;5070341;28;20229;-44
2023/08/05 05:27:05;;;;;;;5.20;4.65;;;;;;;30.55;45.68;94042.97;5070372;28;20191;-44
2023/08/05 05:29:32;;;;;;;5.07;4.68;;;;;;;30.70;45.46;94055.22;5070037;28;20202;-42
2023/08/05 05:31:59;;;;;;;8.20;4.88;;;;;;;30.80;45.37;94047.25;5070107;28;20273;-44
2023/08/05 05:34:25;;;;;;;6.32;5.60;;;;;;;30.96;45.11;94050.53;5070462;28;20195;-42
2023/08/05 05:36:52;;;;;;;6.15;5.07;;;;;;;31.12;44.53;94048.50;5070277;28;20205;-45
2023/08/05 05:39:19;;;;;;;5.93;4.38;;;;;;;31.27;43.97;94050.97;5069909;28;20213;-46
2023/08/05 05:41:45;;;;;;;6.13;5.22;;;;;;;31.42;43.94;94050.00;5070381;28;20259;-45
2023/08/05 05:44:14;;;;;;;5.80;5.30;;;;;;;31.67;43.32;94059.47;5069822;28;20628;-44
2023/08/05 05:46:43;;;;;;;6.32;4.68;;;;;;;31.88;43.10;94046.78;5069980;28;20222;-43
2023/08/05 05:49:10;;;;;;;6.15;5.18;;;;;;;32.13;42.29;94051.69;5069787;28;20651;-44
2023/08/05 05:51:37;;;;;;;12.65;4.65;;;;;;;32.37;42.63;94053.44;5069912;28;20218;-45
2023/08/05 05:54:04;;;;;;;7.47;5.00;;;;;;;32.52;41.80;94050.56;5070004;28;20186;-45
2023/08/05 05:56:32;;;;;;;5.07;4.57;;;;;;;32.78;41.15;94052.78;5070258;28;20190;-42
2023/08/05 05:58:59;;;;;;;6.53;4.38;;;;;;;32.97;40.57;94046.34;5069675;28;20189;-46
2023/08/05 06:01:27;;;;;;;7.28;5.13;;;;;;;33.10;40.38;94046.63;5070078;28;20261;-45
2023/08/05 06:03:53;;;;;;;5.78;4.88;;;;;;;33.07;40.60;94039.28;5069363;28;20194;-44
2023/08/05 06:06:20;;;;;;;5.80;4.43;;;;;;;33.26;40.36;94034.66;5069659;28;20662;-46
2023/08/05 06:08:47;;;;;;;6.28;4.72;;;;;;;33.49;39.92;94048.00;5069781;28;20578;-44
2023/08/05 06:11:14;;;;;;;5.07;4.50;;;;;;;33.53;39.79;94041.81;5069934;28;20201;-44
2023/08/05 06:13:41;;;;;;;7.28;4.78;;;;;;;33.58;39.05;94040.94;5069779;28;20205;-44
2023/08/05 06:16:07;;;;;;;6.97;5.07;;;;;;;33.61;39.46;94041.13;5069524;28;20699;-45
2023/08/05 06:18:36;;;;;;;5.82;4.97;;;;;;;33.61;39.45;94040.34;5069976;28;20190;-44
2023/08/05 06:21:02;;;;;;;7.07;5.22;;;;;;;33.63;39.38;94025.69;5069560;28;20214;-43
2023/08/05 06:23:29;;;;;;;6.45;5.03;;;;;;;33.73;39.38;94023.91;5070181;28;20196;-44
2023/08/05 06:25:56;;;;;;;5.22;4.78;;;;;;;33.83;39.37;94016.50;5070714;28;20202;-44
2023/08/05 06:28:23;;;;;;;6.78;5.47;;;;;;;34.09;38.92;94003.44;5069758;28;20647;-44
2023/08/05 06:30:50;;;;;;;7.68;5.18;;;;;;;34.23;38.45;94002.59;5069273;28;20366;-45
2023/08/05 06:33:16;;;;;;;6.45;4.97;;;;;;;34.38;38.43;94008.31;5069549;28;20308;-44
2023/08/05 06:35:45;;;;;;;8.52;5.38;;;;;;;34.44;38.20;94008.97;5069382;28;20593;-45
2023/08/05 06:38:12;;;;;;;5.30;4.90;;;;;;;34.63;37.23;94006.91;5069821;28;20185;-45
2023/08/05 06:40:41;;;;;;;5.60;4.95;;;;;;;34.40;37.69;93995.50;5069696;28;20251;-44
2023/08/05 06:43:08;;;;;;;7.80;5.13;;;;;;;34.35;37.89;93986.91;5069198;28;20285;-43
2023/08/05 06:45:35;;;;;;;6.43;5.18;;;;;;;34.26;38.34;93978.09;5069396;28;20597;-43
2023/08/05 06:48:01;;;;;;;6.20;5.10;;;;;;;34.47;37.96;93979.19;5069225;28;20194;-44
2023/08/05 06:50:29;;;;;;;6.93;5.40;;;;;;;34.61;38.10;93993.16;5069467;28;20212;-44
2023/08/05 06:52:57;;;;;;;6.93;5.25;;;;;;;34.83;37.54;93980.88;5069065;28;20729;-43
2023/08/05 06:55:23;;;;;;;5.82;5.10;;;;;;;35.04;37.41;93981.13;5069268;28;20206;-44
2023/08/05 06:57:50;;;;;;;6.20;5.07;;;;;;;35.06;37.22;93976.28;5069185;28;20205;-44
2023/08/05 07:00:17;;;;;;;5.63;5.13;;;;;;;34.97;37.24;93970.13;5069209;28;20229;-44
2023/08/05 07:02:44;;;;;;;5.70;5.15;;;;;;;34.86;37.39;93961.69;5068861;28;20605;-44
2023/08/05 07:05:11;;;;;;;6.63;6.03;;;;;;;34.87;37.41;93956.06;5069375;28;20198;-44
2023/08/05 07:07:38;;;;;;;6.05;5.47;;;;;;;34.78;37.45;93954.47;5069000;28;20201;-44
2023/08/05 07:10:11;;;;;;;6.95;5.65;;;;;;;34.87;37.09;93966.69;5069143;28;20186;-44
2023/08/05 07:12:38;;;;;;;7.40;5.15;;;;;;;34.87;37.20;93963.25;5068855;28;20186;-44
2023/08/05 07:15:04;;;;;;;6.55;5.00;;;;;;;34.73;37.25;93957.25;5069044;28;20198;-45
2023/08/05 07:17:32;;;;;;;6.80;5.57;;;;;;;34.88;37.44;93959.47;5072904;28;20598;-45
2023/08/05 07:19:59;;;;;;;7.28;5.00;;;;;;;35.13;37.07;93955.34;5073046;28;20285;-45
2023/08/05 07:22:26;;;;;;;5.43;4.90;;;;;;;35.30;37.30;93957.25;5073181;28;20194;-45
2023/08/05 07:24:54;;;;;;;7.57;5.55;;;;;;;35.43;36.73;93951.03;5073646;28;20218;-46
2023/08/05 07:27:22;;;;;;;6.20;5.70;;;;;;;35.63;36.81;93947.78;5073633;28;20675;-45
2023/08/05 07:29:49;;;;;;;6.63;6.00;;;;;;;35.84;36.56;93936.47;5072814;28;20193;-44
2023/08/05 07:32:15;;;;;;;5.55;4.88;;;;;;;35.91;35.97;93948.22;5072761;28;20208;-45
2023/08/05 07:34:42;;;;;;;6.50;5.65;;;;;;;35.83;36.17;93956.97;5072599;28;20650;-44
2023/08/05 07:37:09;;;;;;;9.40;5.47;;;;;;;35.96;36.00;93954.47;5072655;28;20624;-45
2023/08/05 07:39:36;;;;;;;6.80;5.18;;;;;;;35.96;36.17;93943.81;5072375;28;20676;-45
2023/08/05 07:42:04;;;;;;;6.68;5.57;;;;;;;35.98;36.15;93941.66;5073085;28;20220;-45
2023/08/05 07:44:33;;;;;;;5.70;5.03;;;;;;;36.06;35.84;93944.31;5072643;28;20190;-45
2023/08/05 07:47:00;;;;;;;6.10;5.53;;;;;;;35.99;35.83;93936.03;5071945;28;20573;-45
2023/08/05 07:49:28;;;;;;;6.72;5.88;;;;;;;35.92;36.13;93930.34;5072281;28;20193;-45
2023/08/05 07:51:55;;;;;;;7.13;5.00;;;;;;;35.98;36.01;93933.69;5072224;28;20325;-44
2023/08/05 07:54:23;;;;;;;6.95;5.60;;;;;;;36.03;35.81;93936.19;5072335;28;20194;-44
2023/08/05 07:56:51;;;;;;;5.95;5.47;;;;;;;36.05;35.76;93937.41;5072588;28;20606;-45
2023/08/05 07:59:20;;;;;;;6.40;5.80;;;;;;;36.21;35.59;93940.34;5072466;28;20206;-45
2023/08/05 08:01:48;;;;;;;7.50;5.55;;;;;;;36.25;35.64;93938.63;5071669;28;20714;-45
2023/08/05 08:04:15;;;;;;;10.23;5.95;;;;;;;36.31;35.52;93940.00;5072405;28;20252;-44
2023/08/05 08:06:43;;;;;;;6.07;5.30;;;;;;;36.27;35.31;93915.13;5072086;28;20186;-45
2023/08/05 08:09:10;;;;;;;7.25;5.05;;;;;;;36.39;35.17;93928.53;5072048;28;20194;-44
2023/08/05 08:11:37;;;;;;;6.82;5.53;;;;;;;36.28;35.63;93927.34;5071857;28;20213;-44
2023/08/05 08:14:04;;;;;;;8.05;5.60;;;;;;;35.95;35.45;93873.84;5072457;28;20244;-44
2023/08/05 08:16:31;;;;;;;7.13;5.80;;;;;;;36.46;35.44;93922.75;5072159;28;20281;-44
2023/08/05 08:18:59;;;;;;;12.02;5.75;;;;;;;36.49;35.45;93924.00;5071694;28;20223;-43
2023/08/05 08:21:26;;;;;;;7.47;5.82;;;;;;;36.49;35.21;93916.00;5071691;28;20233;-44
2023/08/05 08:23:53;;;;;;;9.05;5.60;;;;;;;36.54;35.25;93924.63;5071891;28;20190;-45
2023/08/05 08:26:20;;;;;;;10.15;6.07;;;;;;;36.58;34.99;93914.09;5071090;28;20222;-44
2023/08/05 08:28:46;;;;;;;8.05;6.30;;;;;;;36.53;34.98;93915.06;5071793;28;20771;-44
2023/08/05 08:31:13;;;;;;;7.43;5.80;;;;;;;36.13;35.64;93909.97;5070976;28;20229;-45
2023/08/05 08:33:40;;;;;;;7.15;6.45;;;;;;;35.78;35.85;93905.81;5071513;28;20276;-44
2023/08/05 08:36:08;;;;;;;6.18;5.35;;;;;;;35.77;36.00;93909.56;5071785;28;20239;-44
2023/08/05 08:38:35;;;;;;;6.20;5.55;;;;;;;35.84;36.11;93908.00;5071268;28;20191;-44
2023/08/05 08:41:03;;;;;;;6.03;5.47;;;;;;;35.95;36.46;93908.44;5071186;28;20225;-46
2023/08/05 08:43:31;;;;;;;5.22;4.82;;;;;;;36.17;36.27;93910.91;5071110;28;20240;-44
2023/08/05 08:45:59;;;;;;;6.72;5.35;;;;;;;36.10;36.17;93907.97;5071208;28;20191;-47
2023/08/05 08:48:27;;;;;;;6.30;5.70;;;;;;;35.84;36.34;93900.03;5071410;28;20621;-44
2023/08/05 08:50:54;;;;;;;5.97;5.45;;;;;;;35.95;36.53;93900.47;5071239;28;20190;-44
2023/08/05 08:53:23;;;;;;;8.15;5.82;;;;;;;36.02;36.42;93897.34;5070963;28;20190;-46
2023/08/05 08:55:50;;;;;;;6.63;5.93;;;;;;;36.03;36.42;93902.34;5071154;28;20252;-44
2023/08/05 08:58:17;;;;;;;8.48;5.40;;;;;;;36.04;36.76;93906.56;5070799;28;20673;-44
2023/08/05 09:00:44;;;;;;;6.63;6.00;;;;;;;35.91;36.92;93897.63;5070703;28;20218;-45
2023/08/05 09:03:11;;;;;;;7.50;5.72;;;;;;;35.77;37.12;93888.28;5070737;28;20197;-44
2023/08/05 09:05:42;;;;;;;7.30;5.53;;;;;;;35.84;36.97;93888.56;5070838;28;20194;-44
2023/08/05 09:08:09;;;;;;;6.55;5.85;;;;;;;35.80;37.05;93883.13;5070684;28;20194;-44
2023/08/05 09:10:38;;;;;;;8.32;6.28;;;;;;;35.75;37.08;93880.59;5071062;28;20228;-44
2023/08/05 09:13:05;;;;;;;6.47;5.88;;;;;;;35.74;37.41;93888.91;5070525;28;20641;-44
2023/08/05 09:15:34;;;;;;;7.47;6.78;;;;;;;35.74;37.25;93887.03;5070559;28;20198;-42
2023/08/05 09:18:01;;;;;;;7.13;6.43;;;;;;;35.53;37.41;93883.44;5070683;28;20214;-43
2023/08/05 09:20:27;;;;;;;7.05;6.28;;;;;;;35.27;38.11;93892.19;5070432;28;20198;-46
2023/08/05 09:22:55;;;;;;;8.57;6.25;;;;;;;35.15;37.95;93884.84;5070826;28;20209;-44
2023/08/05 09:25:23;;;;;;;9.35;6.72;;;;;;;35.37;38.05;93897.22;5070318;28;20201;-44
2023/08/05 09:27:53;;;;;;;7.18;6.45;;;;;;;35.50;37.65;93884.88;5070513;28;20190;-45
2023/08/05 09:30:22;;;;;;;9.18;7.43;;;;;;;35.57;37.61;93892.38;5069907;28;20226;-44
2023/08/05 09:32:49;;;;;;;6.70;6.13;;;;;;;35.50;37.25;93881.44;5070754;28;20190;-44
2023/08/05 09:35:17;;;;;;;10.85;6.80;;;;;;;35.46;37.64;93877.81;5070042;28;20645;-44
2023/08/05 09:37:48;;;;;;;7.20;6.57;;;;;;;35.54;37.73;93864.53;5070151;28;20205;-44
2023/08/05 09:40:17;;;;;;;7.53;6.78;;;;;;;35.42;37.49;93870.47;5069480;28;20185;-43
2023/08/05 09:42:47;;;;;;;9.65;6.32;;;;;;;35.26;37.64;93858.72;5070007;28;20309;-44
2023/08/05 09:45:17;;;;;;;8.10;7.30;;;;;;;35.17;38.31;93865.91;5069800;28;20201;-45
2023/08/05 09:47:47;;;;;;;7.28;6.57;;;;;;;35.12;38.16;93856.22;5070126;28;20279;-45
2023/08/05 09:50:14;;;;;;;10.32;7.07;;;;;;;35.22;38.11;93865.75;5070178;28;20649;-43
2023/08/05 09:52:43;;;;;;;7.50;6.85;;;;;;;35.21;38.49;93860.75;5070206;28;20186;-44
2023/08/05 09:55:13;;;;;;;8.40;6.97;;;;;;;35.15;38.65;93858.28;5069856;28;20194;-45
2023/08/05 09:57:41;;;;;;;8.00;7.28;;;;;;;35.08;38.62;93855.28;5070156;28;20198;-43
2023/08/05 10:00:10;;;;;;;8.00;7.07;;;;;;;35.00;39.11;93855.28;5069950;28;20194;-45
2023/08/05 10:02:41;;;;;;;7.72;6.32;;;;;;;34.97;38.86;93859.31;5070041;28;20221;-44
2023/08/05 10:05:09;;;;;;;7.70;6.85;;;;;;;34.76;39.07;93839.72;5069800;28;20585;-44
2023/08/05 10:07:36;;;;;;;7.72;6.13;;;;;;;34.61;38.80;93822.38;5069930;28;20194;-45
2023/08/05 10:10:06;;;;;;;7.47;6.78;;;;;;;34.76;39.43;93851.16;5069543;28;20182;-45
2023/08/05 10:12:38;;;;;;;7.63;6.93;;;;;;;34.72;39.23;93836.13;5070321;28;20190;-45
2023/08/05 10:15:07;;;;;;;7.57;6.97;;;;;;;34.62;39.67;93853.16;5069571;28;20193;-44
2023/08/05 10:17:40;;;;;;;8.32;7.22;;;;;;;34.62;39.50;93843.31;5069909;28;20190;-44
2023/08/05 10:20:12;;;;;;;7.65;6.60;;;;;;;34.68;39.44;93844.75;5069290;28;20289;-43
2023/08/05 10:22:39;;;;;;;8.18;7.18;;;;;;;34.57;39.83;93851.41;5069426;28;20229;-46
2023/08/05 10:25:06;;;;;;;6.53;5.97;;;;;;;34.32;40.45;93846.78;5069560;28;20229;-43
2023/08/05 10:27:34;;;;;;;6.97;6.38;;;;;;;34.19;40.41;93859.06;5069774;28;20559;-44
2023/08/05 10:30:07;;;;;;;7.10;6.45;;;;;;;34.03;40.58;93836.69;5069291;28;20265;-43
2023/08/05 10:32:35;;;;;;;8.63;6.78;;;;;;;33.92;40.65;93844.09;5069541;28;20237;-43
2023/08/05 10:35:32;;;;;;;10.00;6.88;;;;;;;33.83;41.03;93830.78;5069107;28;20190;-43
2023/08/05 10:38:09;;;;;;;7.43;6.75;;;;;;;33.86;41.41;93835.50;5069549;28;20209;-45
2023/08/05 10:40:46;;;;;;;9.52;6.70;;;;;;;33.93;41.44;93835.03;5069363;28;20193;-44
2023/08/05 10:43:27;;;;;;;7.30;6.57;;;;;;;33.98;41.50;93831.50;5069363;28;20225;-44
2023/08/05 10:45:55;;;;;;;9.15;6.60;;;;;;;34.13;40.49;93823.16;5069046;28;20281;-43
2023/08/05 10:48:29;;;;;;;7.40;6.78;;;;;;;34.08;40.71;93820.63;5069274;28;20281;-44
2023/08/05 10:50:58;;;;;;;7.60;6.32;;;;;;;34.07;41.16;93825.16;5072229;28;20279;-44
2023/08/05 10:53:25;;;;;;;8.63;7.72;;;;;;;34.14;41.42;93814.88;5073354;28;20195;-44
2023/08/05 10:55:56;;;;;;;8.80;8.00;;;;;;;34.15;40.95;93807.69;5073241;28;20186;-43
2023/08/05 10:58:24;;;;;;;6.82;6.30;;;;;;;34.03;41.08;93789.72;5073089;28;20190;-44
2023/08/05 11:00:58;;;;;;;7.13;6.53;;;;;;;34.20;41.22;93796.97;5073021;28;20281;-44
2023/08/05 11:03:29;;;;;;;7.53;6.82;;;;;;;34.24;41.25;93795.22;5073095;28;20194;-44
2023/08/05 11:06:00;;;;;;;7.60;6.78;;;;;;;34.26;41.45;93801.03;5073443;28;20202;-44
2023/08/05 11:08:27;;;;;;;7.05;6.43;;;;;;;34.35;41.23;93796.50;5073291;28;20194;-44
2023/08/05 11:10:54;;;;;;;7.80;6.82;;;;;;;34.28;41.52;93801.47;5072628;28;20200;-44
2023/08/05 11:13:21;;;;;;;7.80;6.35;;;;;;;34.15;41.25;93770.53;5073295;28;20190;-44
2023/08/05 11:16:01;;;;;;;7.82;7.03;;;;;;;34.20;41.63;93787.13;5072636;28;20224;-44
2023/08/05 11:18:28;;;;;;;7.63;6.80;;;;;;;34.26;41.33;93774.47;5072920;28;20197;-45
2023/08/05 11:20:58;;;;;;;9.35;7.00;;;;;;;34.17;41.60;93776.34;5072654;28;20194;-44
2023/08/05 11:23:25;;;;;;;7.28;6.50;;;;;;;34.17;41.39;93766.50;5072680;28;20191;-44
2023/08/05 11:25:53;;;;;;;8.90;6.60;;;;;;;34.09;41.80;93769.13;5072328;28;20191;-46
2023/08/05 11:28:20;;;;;;;7.38;6.35;;;;;;;33.98;41.44;93773.91;5072709;28;20182;-46
2023/08/05 11:30:47;;;;;;;7.82;6.00;;;;;;;33.79;41.82;93752.13;5072493;28;20287;-44
2023/08/05 11:33:14;;;;;;;7.68;6.72;;;;;;;33.84;42.25;93770.56;5072654;28;20189;-45